Baldwin, North Carolina
Current Conditions -  °F | °C
As of 4:35 PM on Saturday 22 Nov 2014 (Local Time) from KGEV Reporting Station
Clear Clear  
Wind Chill: 39°   Ceiling: Unl
Heat Index: 42°   Visibility: 10mi
Dew Point: 14°   Wind: 5mph
Humidity: 32%   Direction: 140°SE
Pressure: 30.29"   Gusts: NA
Location:  36.358°N, 81.4709°W
Report Text: KGEV 222135Z AUTO 14004KT 10SM CLR 06/M10 A3029 RMK AO2 T00551100
Loading
Personal Weather Stations






























Interactive Weather Map New forecast layout! Learn more

10-Day Weather Forecast

Advertisements
Track Severe Weather on mobile